Rushville, OH (43150)

12:59 AM EDT on March 30, 2015 (GMT -0400)
Northern Lancaster Area | | Change Station
CLOSE
Current Station
Personal Weather Station
Location: Lancaster, OH
Elevation: 1000 ft
Nearby Weather Stations

Elev 1000 ft 39.76 °N, 82.57 °W | Updated 56 seconds ago

Overcast
Overcast
41.5 °F
Feels Like 39 °F
N
4.0
Wind Variable Wind from South
Gusts 11.0 mph

Today
High -- | Low -- °F
--% Chance of Precip.
Yesterday
High -- | Low -- °F
Precip. -- in
7:17 AM 7:51 PM
Waxing Gibbous, 77% visible
Pressure 29.95 in
Visibility 10.0 miles
Clouds Overcast 4100 ft
Windchill 39 °F
Dew Point 37 °F
Humidity 83%
Rainfall 0.00 in
Snow Depth Not available.
UV 0 out of 12
Pollen 7.70 out of 12
Air Quality Not available.
Flu Activity Not available.
METAR KLHQ 300453Z AUTO 20008KT 10SM OVC041 06/01 A2994 RMK AO2 SLP141 T00610011 400941094

More Conditions Fewer Conditions

Pressure 29.95 in
Visibility 10.0 miles
Clouds Overcast 4100 ft
Windchill 39 °F
Dew Point 37 °F
Humidity 83%
Rainfall 0.00 in
Snow Depth Not available.
UV 0 out of 12
Pollen 7.70 out of 12
Air Quality Not available.
Flu Activity Not available.
METAR KLHQ 300453Z AUTO 20008KT 10SM OVC041 06/01 A2994 RMK AO2 SLP141 T00610011 400941094

More Conditions Fewer Conditions

10-Day Weather Forecast

Almanac

Astronomy

Mar. 30, 2015 Rise Set
Actual Time
Civil Twilight
Nautical Twilight
Astronomical Twilight
Moon
Length of Visible Light
Length of Day
Tomorrow will be .
, % of the Moon is Illuminated

Today's Extremes

State Highs State Lows

Community

WunderPhotos

Upload Photos

1,809,436 photos uploaded!

WunderBlogs® & News

Nearby

Air Quality

  Air Quality AQ Index Pollutant
Not available.

Snow Depth

Station Depth Elevation

Earthquake Activity

City Distance Mag. Time & Date
Minimum magnitude displayed is 2.5.

Coastal Water Temperatures

Place Temperature

Stations

Nearby Weather Stations

Station Location Temp. Windchill Dew Point Humidity Wind Precip. Elev Updated Type